createdAt,value
2019-04-20T00:01:29.267Z,5.65
2019-04-20T00:03:56.269Z,5.58
2019-04-20T00:06:25.072Z,4.62
2019-04-20T00:09:03.282Z,5.10
2019-04-20T00:11:29.575Z,5.47
2019-04-20T00:14:02.052Z,5.62
2019-04-20T00:16:25.306Z,5.60
2019-04-20T00:18:58.241Z,6.33
2019-04-20T00:21:46.970Z,5.35
2019-04-20T00:24:22.859Z,5.85
2019-04-20T00:27:19.616Z,6.30
2019-04-20T00:29:38.056Z,6.20
2019-04-20T00:32:01.544Z,6.15
2019-04-20T00:34:24.130Z,6.20
2019-04-20T00:36:47.448Z,5.78
2019-04-20T00:39:17.166Z,6.95
2019-04-20T00:41:51.648Z,6.62
2019-04-20T00:44:23.344Z,6.87
2019-04-20T00:47:01.903Z,6.72
2019-04-20T00:49:34.909Z,6.80
2019-04-20T00:52:18.763Z,6.67
2019-04-20T00:54:20.119Z,7.15
2019-04-20T00:57:05.787Z,7.12
2019-04-20T00:59:35.514Z,6.97
2019-04-20T01:02:13.153Z,6.80
2019-04-20T01:04:44.975Z,7.17
2019-04-20T01:07:11.324Z,7.08
2019-04-20T01:09:47.816Z,8.05
2019-04-20T01:12:22.463Z,5.87
2019-04-20T01:14:54.009Z,7.92
2019-04-20T01:17:17.857Z,7.92
2019-04-20T01:19:48.912Z,8.48
2019-04-20T01:22:22.383Z,7.30
2019-04-20T01:24:51.590Z,9.05
2019-04-20T01:27:32.572Z,7.47
2019-04-20T01:29:57.641Z,8.05
2019-04-20T01:32:31.162Z,7.87
2019-04-20T01:35:02.137Z,7.80
2019-04-20T01:37:32.807Z,7.78
2019-04-20T01:39:59.303Z,7.70
2019-04-20T01:42:27.474Z,8.25
2019-04-20T01:44:59.016Z,7.40
2019-04-20T01:47:36.248Z,8.20
2019-04-20T01:50:08.570Z,8.53
2019-04-20T01:52:44.266Z,7.90
2019-04-20T01:55:24.838Z,7.47
2019-04-20T01:57:56.178Z,8.28
2019-04-20T02:00:29.997Z,7.50
2019-04-20T02:03:01.759Z,7.50
2019-04-20T02:05:33.715Z,7.58
2019-04-20T02:08:00.238Z,6.78
2019-04-20T02:10:37.015Z,7.85
2019-04-20T02:13:02.890Z,8.23
2019-04-20T02:15:37.920Z,8.95
2019-04-20T02:18:14.960Z,8.05
2019-04-20T02:20:48.758Z,9.10
2019-04-20T02:23:14.558Z,9.58
2019-04-20T02:25:31.250Z,8.08
2019-04-20T02:28:19.022Z,8.78
2019-04-20T02:31:06.365Z,7.33
2019-04-20T02:33:41.927Z,7.65
2019-04-20T02:36:33.655Z,7.95
2019-04-20T02:41:36.111Z,8.33
2019-04-20T02:44:06.354Z,8.63
2019-04-20T02:46:33.446Z,7.95
2019-04-20T02:49:12.861Z,9.78
2019-04-20T02:51:33.024Z,8.63
2019-04-20T02:54:11.433Z,8.33
2019-04-20T02:59:29.631Z,8.33
2019-04-20T03:01:29.444Z,8.23
2019-04-20T03:03:41.361Z,8.73
2019-04-20T03:06:19.646Z,9.13
2019-04-20T03:09:00.004Z,8.05
2019-04-20T03:11:29.528Z,8.95
2019-04-20T03:13:59.048Z,10.50
2019-04-20T03:16:29.947Z,8.40
2019-04-20T03:18:55.810Z,8.83
2019-04-20T03:21:33.323Z,9.25
2019-04-20T03:24:08.432Z,10.58
2019-04-20T03:26:36.718Z,10.08
2019-04-20T03:29:03.936Z,9.25
2019-04-20T03:34:55.364Z,9.30
2019-04-20T03:37:08.433Z,10.68
2019-04-20T03:39:28.711Z,9.30
2019-04-20T03:41:46.635Z,10.05
2019-04-20T03:44:15.443Z,11.38
2019-04-20T03:46:47.882Z,10.35
2019-04-20T03:49:38.058Z,11.00
2019-04-20T03:52:05.104Z,8.80
2019-04-20T03:54:40.793Z,9.20
2019-04-20T03:57:23.602Z,11.03
2019-04-20T03:59:54.825Z,10.25
2019-04-20T04:02:52.807Z,8.75
2019-04-20T04:05:23.871Z,9.03
2019-04-20T04:07:42.272Z,9.55
2019-04-20T04:10:22.014Z,10.98
2019-04-20T04:13:09.595Z,9.63
2019-04-20T04:15:46.768Z,10.53
2019-04-20T04:18:17.729Z,10.43
2019-04-20T04:20:47.615Z,10.25
2019-04-20T04:23:29.218Z,11.53
2019-04-20T04:26:00.669Z,9.23
2019-04-20T04:28:31.189Z,9.83
2019-04-20T04:31:09.478Z,11.15
2019-04-20T04:36:01.661Z,10.58
2019-04-20T04:38:43.514Z,10.43
2019-04-20T04:41:13.992Z,11.97
2019-04-20T04:43:39.786Z,11.57
2019-04-20T04:45:51.345Z,11.63
2019-04-20T04:48:28.371Z,11.70
2019-04-20T04:50:59.135Z,11.48
2019-04-20T04:53:30.377Z,12.45
2019-04-20T04:55:59.579Z,11.55
2019-04-20T04:58:23.663Z,11.80
2019-04-20T05:00:56.846Z,10.75
2019-04-20T05:03:42.259Z,12.03
2019-04-20T05:06:20.885Z,11.70
2019-04-20T05:08:36.902Z,11.85
2019-04-20T05:11:00.815Z,13.40
2019-04-20T05:13:37.090Z,12.13
2019-04-20T05:16:13.221Z,12.90
2019-04-20T05:19:11.538Z,11.48
2019-04-20T05:21:23.833Z,11.83
2019-04-20T05:23:46.145Z,12.88
2019-04-20T05:26:32.670Z,11.73
2019-04-20T05:28:59.031Z,11.18
2019-04-20T05:31:23.484Z,13.08
2019-04-20T05:34:18.205Z,11.38
2019-04-20T05:36:42.824Z,13.83
2019-04-20T05:39:32.706Z,12.85
2019-04-20T05:41:42.943Z,12.45
2019-04-20T05:44:11.269Z,13.98
2019-04-20T05:46:41.016Z,13.53
2019-04-20T05:49:20.600Z,14.13
2019-04-20T05:51:43.231Z,13.00
2019-04-20T05:54:34.957Z,13.40
2019-04-20T05:56:50.119Z,12.70
2019-04-20T05:59:17.884Z,12.13
2019-04-20T06:01:54.303Z,12.58
2019-04-20T06:04:30.008Z,12.75
2019-04-20T06:06:53.548Z,12.47
2019-04-20T06:09:23.118Z,11.93
2019-04-20T06:12:04.820Z,12.15
2019-04-20T06:14:10.371Z,11.50
2019-04-20T06:17:00.102Z,11.50
2019-04-20T06:19:33.170Z,10.38
2019-04-20T06:22:07.243Z,12.00
2019-04-20T06:24:42.140Z,10.00
2019-04-20T06:27:06.287Z,10.78
2019-04-20T06:29:34.823Z,12.07
2019-04-20T06:32:06.648Z,10.03
2019-04-20T06:34:48.675Z,11.53
2019-04-20T06:37:02.065Z,11.45
2019-04-20T06:39:37.283Z,10.03
2019-04-20T06:42:17.622Z,10.23
2019-04-20T06:44:41.291Z,9.13
2019-04-20T06:47:15.796Z,10.48
2019-04-20T06:49:38.059Z,9.95
2019-04-20T06:52:15.421Z,11.15
2019-04-20T06:54:54.124Z,10.10
2019-04-20T06:57:33.115Z,9.78
2019-04-20T07:00:00.786Z,10.65
2019-04-20T07:04:59.988Z,9.50
2019-04-20T07:07:29.812Z,9.68
2019-04-20T07:10:08.577Z,9.65
2019-04-20T07:12:31.321Z,8.75
2019-04-20T07:14:50.973Z,9.60
2019-04-20T07:17:39.288Z,10.60
2019-04-20T07:20:04.538Z,9.25
2019-04-20T07:22:46.207Z,8.83
2019-04-20T07:25:20.244Z,9.20
2019-04-20T07:27:49.326Z,8.90
2019-04-20T07:30:16.478Z,9.23
2019-04-20T07:32:52.639Z,9.35
2019-04-20T07:35:23.243Z,9.45
2019-04-20T07:40:20.634Z,9.20
2019-04-20T07:45:28.326Z,8.15
2019-04-20T07:48:11.280Z,8.50
2019-04-20T07:50:18.360Z,7.83
2019-04-20T07:52:46.567Z,7.97
2019-04-20T07:57:50.029Z,8.28
2019-04-20T08:00:45.981Z,7.95
2019-04-20T08:03:23.653Z,6.97
2019-04-20T08:05:46.836Z,7.80
2019-04-20T08:08:23.964Z,7.80
2019-04-20T08:10:53.724Z,7.55
2019-04-20T08:13:40.572Z,7.35
2019-04-20T08:16:00.944Z,7.60
2019-04-20T08:18:33.890Z,8.33
2019-04-20T08:21:06.769Z,7.90
2019-04-20T08:23:33.468Z,7.00
2019-04-20T08:25:54.368Z,8.10
2019-04-20T08:28:22.804Z,6.65
2019-04-20T08:31:09.363Z,7.83
2019-04-20T08:34:07.459Z,6.97
2019-04-20T08:36:31.566Z,7.15
2019-04-20T08:39:32.245Z,6.75
2019-04-20T08:41:27.181Z,6.80
2019-04-20T08:44:11.148Z,6.80
2019-04-20T08:46:38.336Z,6.83
2019-04-20T08:49:01.576Z,7.17
2019-04-20T08:51:41.648Z,5.87
2019-04-20T08:54:06.887Z,5.97
2019-04-20T08:56:31.964Z,6.97
2019-04-20T08:58:50.624Z,6.70
2019-04-20T09:01:21.628Z,5.53
2019-04-20T09:03:58.930Z,5.70
2019-04-20T09:06:38.837Z,5.10
2019-04-20T09:09:03.689Z,5.55
2019-04-20T09:11:44.154Z,5.20
2019-04-20T09:14:00.452Z,5.67
2019-04-20T09:16:37.080Z,6.10
2019-04-20T09:19:04.670Z,6.62
2019-04-20T09:21:39.128Z,6.08
2019-04-20T09:24:30.540Z,6.00
2019-04-20T09:26:50.501Z,6.25
2019-04-20T09:29:11.798Z,5.90
2019-04-20T09:31:48.645Z,5.47
2019-04-20T09:34:39.319Z,5.05
2019-04-20T09:37:23.669Z,4.42
2019-04-20T09:40:02.411Z,5.08
2019-04-20T09:42:12.412Z,4.95
2019-04-20T09:44:46.056Z,5.80
2019-04-20T09:47:12.332Z,4.85
2019-04-20T09:49:54.142Z,5.67
2019-04-20T09:52:28.015Z,5.20
2019-04-20T09:54:59.280Z,5.17
2019-04-20T09:57:33.992Z,5.30
2019-04-20T10:00:01.732Z,4.50
2019-04-20T10:02:24.149Z,5.40
2019-04-20T10:04:47.814Z,5.17
2019-04-20T10:07:21.383Z,5.83
2019-04-20T10:09:47.406Z,5.80
2019-04-20T10:12:19.765Z,5.45
2019-04-20T10:14:48.944Z,6.37
2019-04-20T10:17:18.041Z,6.80
2019-04-20T10:19:48.678Z,6.30
2019-04-20T10:22:20.453Z,5.80
2019-04-20T10:24:51.826Z,6.40
2019-04-20T10:27:20.837Z,7.62
2019-04-20T10:29:49.850Z,7.15
2019-04-20T10:32:25.104Z,6.45
2019-04-20T10:34:52.740Z,6.25
2019-04-20T10:37:25.742Z,5.75
2019-04-20T10:39:54.619Z,5.10
2019-04-20T10:42:23.877Z,5.20
2019-04-20T10:44:57.083Z,5.72
2019-04-20T10:47:25.260Z,4.90
2019-04-20T10:49:56.565Z,5.25
2019-04-20T10:52:25.685Z,4.90
2019-04-20T10:54:54.747Z,3.95
2019-04-20T10:57:25.793Z,5.12
2019-04-20T10:59:53.506Z,4.70
2019-04-20T11:02:23.557Z,3.95
2019-04-20T11:04:52.914Z,4.60
2019-04-20T11:07:22.631Z,5.15
2019-04-20T11:10:04.433Z,4.80
2019-04-20T11:12:22.175Z,4.78
2019-04-20T11:14:52.220Z,4.65
2019-04-20T11:17:20.987Z,4.50
2019-04-20T11:19:51.526Z,4.33
2019-04-20T11:22:22.293Z,5.05
2019-04-20T11:24:52.362Z,4.33
2019-04-20T11:27:23.155Z,3.75
2019-04-20T11:30:04.353Z,3.60
2019-04-20T11:32:44.328Z,4.08
2019-04-20T11:35:22.811Z,3.75
2019-04-20T11:37:44.873Z,3.87
2019-04-20T11:40:14.985Z,4.17
2019-04-20T11:42:43.809Z,4.12
2019-04-20T11:45:13.396Z,3.75
2019-04-20T11:47:45.276Z,3.58
2019-04-20T11:50:15.572Z,3.72
2019-04-20T11:52:48.131Z,3.83
2019-04-20T11:55:16.118Z,4.28
2019-04-20T11:57:45.255Z,4.17
2019-04-20T12:00:17.161Z,3.92
2019-04-20T12:02:48.523Z,4.20
2019-04-20T12:05:29.837Z,3.80
2019-04-20T12:07:53.223Z,3.98
2019-04-20T12:10:24.060Z,2.00
2019-04-20T12:12:55.504Z,3.42
2019-04-20T12:15:26.574Z,3.60
2019-04-20T12:17:55.652Z,4.08
2019-04-20T12:20:24.994Z,4.03
2019-04-20T12:22:55.343Z,3.80
2019-04-20T12:25:23.913Z,3.72
2019-04-20T12:27:58.688Z,3.90
2019-04-20T12:30:27.973Z,3.87
2019-04-20T12:32:59.774Z,3.47
2019-04-20T12:35:27.136Z,3.62
2019-04-20T12:37:56.789Z,3.52
2019-04-20T12:40:28.110Z,3.87
2019-04-20T12:42:59.305Z,4.03
2019-04-20T12:45:29.278Z,4.25
2019-04-20T12:47:57.918Z,4.33
2019-04-20T12:50:27.663Z,3.90
2019-04-20T12:52:56.732Z,3.95
2019-04-20T12:55:26.613Z,4.30
2019-04-20T12:57:56.568Z,3.83
2019-04-20T13:00:45.890Z,3.90
2019-04-20T13:03:14.894Z,3.87
2019-04-20T13:05:44.212Z,3.60
2019-04-20T13:08:20.883Z,3.17
2019-04-20T13:10:46.579Z,3.40
2019-04-20T13:13:16.855Z,3.02
2019-04-20T13:15:47.097Z,4.35
2019-04-20T13:18:21.271Z,4.00
2019-04-20T13:20:50.962Z,3.75
2019-04-20T13:23:20.813Z,4.50
2019-04-20T13:25:51.004Z,3.90
2019-04-20T13:28:19.555Z,3.67
2019-04-20T13:30:48.172Z,4.12
2019-04-20T13:33:17.595Z,4.33
2019-04-20T13:35:46.244Z,4.05
2019-04-20T13:38:16.218Z,4.28
2019-04-20T13:40:45.928Z,4.87
2019-04-20T13:43:15.972Z,4.15
2019-04-20T13:45:45.238Z,4.33
2019-04-20T13:48:15.117Z,4.20
2019-04-20T13:50:44.296Z,4.00
2019-04-20T13:53:12.812Z,4.12
2019-04-20T13:55:44.129Z,4.40
2019-04-20T13:58:33.854Z,4.17
2019-04-20T14:01:08.750Z,4.67
2019-04-20T14:03:38.736Z,4.00
2019-04-20T14:06:08.873Z,3.65
2019-04-20T14:08:39.189Z,4.28
2019-04-20T14:11:07.742Z,4.58
2019-04-20T14:13:42.008Z,4.72
2019-04-20T14:16:07.270Z,4.75
2019-04-20T14:18:37.397Z,5.10
2019-04-20T14:21:06.029Z,5.67
2019-04-20T14:23:34.894Z,3.92
2019-04-20T14:26:03.503Z,4.12
2019-04-20T14:28:33.314Z,4.58
2019-04-20T14:31:01.984Z,5.20
2019-04-20T14:33:30.924Z,4.53
2019-04-20T14:36:01.005Z,4.67
2019-04-20T14:38:30.690Z,5.05
2019-04-20T14:41:00.183Z,5.62
2019-04-20T14:43:31.679Z,5.12
2019-04-20T14:46:00.882Z,5.55
2019-04-20T14:48:31.069Z,5.62
2019-04-20T14:50:59.898Z,4.90
2019-04-20T14:53:29.590Z,5.03
2019-04-20T14:55:58.117Z,6.12
2019-04-20T14:58:41.561Z,5.00
2019-04-20T15:01:28.654Z,5.25
2019-04-20T15:04:04.778Z,5.67
2019-04-20T15:06:29.704Z,4.85
2019-04-20T15:08:58.826Z,3.70
2019-04-20T15:11:27.481Z,4.55
2019-04-20T15:13:56.528Z,5.95
2019-04-20T15:16:26.490Z,5.70
2019-04-20T15:18:57.970Z,5.17
2019-04-20T15:21:33.986Z,5.58
2019-04-20T15:24:03.718Z,5.83
2019-04-20T15:26:32.270Z,5.95
2019-04-20T15:29:02.074Z,5.90
2019-04-20T15:31:32.208Z,4.62
2019-04-20T15:34:01.288Z,5.80
2019-04-20T15:36:29.938Z,5.75
2019-04-20T15:38:59.048Z,5.87
2019-04-20T15:41:27.570Z,4.97
2019-04-20T15:43:57.325Z,5.28
2019-04-20T15:46:27.604Z,4.87
2019-04-20T15:48:57.750Z,5.47
2019-04-20T15:51:27.925Z,4.25
2019-04-20T15:53:57.706Z,4.85
2019-04-20T15:56:26.878Z,4.85
2019-04-20T15:58:56.600Z,5.17
2019-04-20T16:01:28.331Z,4.25
2019-04-20T16:04:01.465Z,4.58
2019-04-20T16:06:31.535Z,4.12
2019-04-20T16:09:02.078Z,4.08
2019-04-20T16:11:31.049Z,4.25
2019-04-20T16:14:00.208Z,4.55
2019-04-20T16:16:30.006Z,4.87
2019-04-20T16:19:04.968Z,5.00
2019-04-20T16:21:33.923Z,4.15
2019-04-20T16:24:04.311Z,3.70
2019-04-20T16:26:37.855Z,4.15
2019-04-20T16:29:08.071Z,4.45
2019-04-20T16:31:38.285Z,4.75
2019-04-20T16:34:07.671Z,4.80
2019-04-20T16:36:36.725Z,4.47
2019-04-20T16:39:09.105Z,4.40
2019-04-20T16:41:38.192Z,5.35
2019-04-20T16:44:07.317Z,5.58
2019-04-20T16:46:40.673Z,5.75
2019-04-20T16:49:10.888Z,5.60
2019-04-20T16:51:41.332Z,5.58
2019-04-20T16:54:10.221Z,5.17
2019-04-20T16:56:39.106Z,4.97
2019-04-20T16:59:11.360Z,5.70
2019-04-20T17:01:38.152Z,5.40
2019-04-20T17:04:15.446Z,5.92
2019-04-20T17:07:00.428Z,5.62
2019-04-20T17:09:31.482Z,5.35
2019-04-20T17:12:01.786Z,5.75
2019-04-20T17:14:31.957Z,4.87
2019-04-20T17:17:01.723Z,4.95
2019-04-20T17:19:31.406Z,4.85
2019-04-20T17:22:01.237Z,5.28
2019-04-20T17:24:31.242Z,4.60
2019-04-20T17:27:19.146Z,4.20
2019-04-20T17:30:03.101Z,4.55
2019-04-20T17:32:34.199Z,4.60
2019-04-20T17:35:19.446Z,5.33
2019-04-20T17:37:39.408Z,4.22
2019-04-20T17:40:27.224Z,3.77
2019-04-20T17:42:47.320Z,4.30
2019-04-20T17:45:14.006Z,4.53
2019-04-20T17:47:58.308Z,4.40
2019-04-20T17:50:29.410Z,4.65
2019-04-20T17:52:53.897Z,4.97
2019-04-20T17:55:22.925Z,5.25
2019-04-20T17:57:43.751Z,4.47
2019-04-20T18:00:29.082Z,4.47
2019-04-20T18:03:17.604Z,3.85
2019-04-20T18:05:55.791Z,4.22
2019-04-20T18:08:27.270Z,4.15
2019-04-20T18:10:50.738Z,4.20
2019-04-20T18:13:14.360Z,3.87
2019-04-20T18:15:52.824Z,4.75
2019-04-20T18:18:40.897Z,4.22
2019-04-20T18:20:56.921Z,4.10
2019-04-20T18:23:33.722Z,5.15
2019-04-20T18:26:17.160Z,5.67
2019-04-20T18:28:51.419Z,4.42
2019-04-20T18:31:03.696Z,5.12
2019-04-20T18:33:34.941Z,4.78
2019-04-20T18:36:03.476Z,5.50
2019-04-20T18:38:39.260Z,6.60
2019-04-20T18:41:09.140Z,4.25
2019-04-20T18:43:43.875Z,4.65
2019-04-20T18:46:27.894Z,5.67
2019-04-20T18:48:54.285Z,5.45
2019-04-20T18:51:09.943Z,5.05
2019-04-20T18:53:42.846Z,5.15
2019-04-20T18:56:09.501Z,5.50
2019-04-20T18:58:38.501Z,4.33
2019-04-20T19:01:07.539Z,6.25
2019-04-20T19:03:41.906Z,4.80
2019-04-20T19:06:07.770Z,5.80
2019-04-20T19:08:40.413Z,7.28
2019-04-20T19:11:11.436Z,6.60
2019-04-20T19:13:45.885Z,7.00
2019-04-20T19:16:33.010Z,5.78
2019-04-20T19:19:16.918Z,6.47
2019-04-20T19:21:35.262Z,4.85
2019-04-20T19:24:10.950Z,5.50
2019-04-20T19:26:38.527Z,5.55
2019-04-20T19:29:15.674Z,5.70
2019-04-20T19:31:57.349Z,5.50
2019-04-20T19:34:28.416Z,5.65
2019-04-20T19:36:53.363Z,5.92
2019-04-20T19:39:25.967Z,5.87
2019-04-20T19:41:50.742Z,8.85
2019-04-20T19:44:22.549Z,5.25
2019-04-20T19:47:05.225Z,5.35
2019-04-20T19:49:25.360Z,5.67
2019-04-20T19:52:14.875Z,5.40
2019-04-20T19:54:34.494Z,6.33
2019-04-20T19:57:00.515Z,6.92
2019-04-20T19:59:25.148Z,5.90
2019-04-20T20:01:47.552Z,5.87
2019-04-20T20:04:17.561Z,6.20
2019-04-20T20:06:52.815Z,7.87
2019-04-20T20:09:18.303Z,6.40
2019-04-20T20:11:48.498Z,6.60
2019-04-20T20:14:25.606Z,8.70
2019-04-20T20:17:02.733Z,7.33
2019-04-20T20:19:40.928Z,7.75
2019-04-20T20:22:05.580Z,6.95
2019-04-20T20:24:23.255Z,7.25
2019-04-20T20:26:58.740Z,8.60
2019-04-20T20:29:30.532Z,6.72
2019-04-20T20:32:05.030Z,8.25
2019-04-20T20:34:32.407Z,6.95
2019-04-20T20:37:00.578Z,6.92
2019-04-20T20:39:30.939Z,6.87
2019-04-20T20:42:08.998Z,9.08
2019-04-20T20:44:38.911Z,10.35
2019-04-20T20:47:18.571Z,8.23
2019-04-20T20:49:46.819Z,7.37
2019-04-20T20:52:20.535Z,8.48
2019-04-20T20:54:41.144Z,7.87
2019-04-20T20:57:05.670Z,7.90
2019-04-20T20:59:40.235Z,8.15
2019-04-20T21:02:06.389Z,6.90
2019-04-20T21:04:31.136Z,9.00
2019-04-20T21:07:00.683Z,7.58
2019-04-20T21:09:29.347Z,7.97
2019-04-20T21:12:04.314Z,8.68
2019-04-20T21:14:34.826Z,6.80
2019-04-20T21:17:12.232Z,7.83
2019-04-20T21:19:49.055Z,7.92
2019-04-20T21:22:11.512Z,7.58
2019-04-20T21:24:37.854Z,7.55
2019-04-20T21:27:10.219Z,8.53
2019-04-20T21:29:44.380Z,9.18
2019-04-20T21:32:12.555Z,7.78
2019-04-20T21:34:37.735Z,8.23
2019-04-20T21:37:12.150Z,9.60
2019-04-20T21:39:44.263Z,8.23
2019-04-20T21:42:12.495Z,7.60
2019-04-20T21:44:44.368Z,8.18
2019-04-20T21:47:10.731Z,7.55
2019-04-20T21:49:52.827Z,8.68
2019-04-20T21:52:22.199Z,7.30
2019-04-20T21:54:42.237Z,10.38
2019-04-20T21:57:12.942Z,7.90
2019-04-20T21:59:45.447Z,7.45
2019-04-20T22:02:20.843Z,8.33
2019-04-20T22:04:43.031Z,9.68
2019-04-20T22:07:12.460Z,8.63
2019-04-20T22:09:46.751Z,8.40
2019-04-20T22:12:12.039Z,8.85
2019-04-20T22:14:41.862Z,8.20
2019-04-20T22:17:14.163Z,9.83
2019-04-20T22:19:48.978Z,9.68
2019-04-20T22:22:22.805Z,8.75
2019-04-20T22:24:56.285Z,8.40
2019-04-20T22:27:20.249Z,8.28
2019-04-20T22:29:44.322Z,8.90
2019-04-20T22:32:16.499Z,8.55
2019-04-20T22:34:47.516Z,9.00
2019-04-20T22:37:20.095Z,8.58
2019-04-20T22:39:54.032Z,8.68
2019-04-20T22:42:19.705Z,8.18
2019-04-20T22:44:56.662Z,8.38
2019-04-20T22:47:25.401Z,8.35
2019-04-20T22:50:12.922Z,8.10
2019-04-20T22:52:34.763Z,9.20
2019-04-20T22:55:13.983Z,10.78
2019-04-20T22:57:38.493Z,8.83
2019-04-20T23:00:02.108Z,8.93
2019-04-20T23:02:24.776Z,9.05
2019-04-20T23:04:53.228Z,8.75
2019-04-20T23:07:23.033Z,9.08
2019-04-20T23:09:56.077Z,9.23
2019-04-20T23:12:23.739Z,9.68
2019-04-20T23:14:54.266Z,9.35
2019-04-20T23:17:29.899Z,8.30
2019-04-20T23:19:57.449Z,8.23
2019-04-20T23:22:32.949Z,9.13
2019-04-20T23:24:55.256Z,9.78
2019-04-20T23:27:29.176Z,10.30
2019-04-20T23:29:55.242Z,10.53
2019-04-20T23:32:27.997Z,9.93
2019-04-20T23:34:59.082Z,10.50
2019-04-20T23:37:31.191Z,9.88
2019-04-20T23:39:56.492Z,9.20
2019-04-20T23:42:40.195Z,10.88
2019-04-20T23:45:11.634Z,9.60
2019-04-20T23:47:47.897Z,9.38
2019-04-20T23:50:34.221Z,9.35
2019-04-20T23:53:08.361Z,9.13
2019-04-20T23:55:18.665Z,10.63
2019-04-20T23:57:55.912Z,9.73
